sensor_id;sensor_type;location;lat;lon;timestamp;pressure;altitude;pressure_sealevel;temperature;humidity
29839;BME280;18669;53.356;-1.464;2022-11-20T00:01:23;100007.84;;;7.76;100.00
29839;BME280;18669;53.356;-1.464;2022-11-20T00:03:51;100006.91;;;7.79;100.00
29839;BME280;18669;53.356;-1.464;2022-11-20T00:06:19;100004.31;;;7.79;100.00
29839;BME280;18669;53.356;-1.464;2022-11-20T00:09:11;99991.91;;;7.89;100.00
29839;BME280;18669;53.356;-1.464;2022-11-20T00:11:37;99986.97;;;7.73;100.00
29839;BME280;18669;53.356;-1.464;2022-11-20T00:14:03;99984.56;;;7.61;100.00
29839;BME280;18669;53.356;-1.464;2022-11-20T00:16:30;99977.94;;;7.88;100.00
29839;BME280;18669;53.356;-1.464;2022-11-20T00:18:57;99974.75;;;7.72;100.00
29839;BME280;18669;53.356;-1.464;2022-11-20T00:21:25;99970.25;;;7.79;100.00
29839;BME280;18669;53.356;-1.464;2022-11-20T00:23:54;99977.16;;;7.83;100.00
29839;BME280;18669;53.356;-1.464;2022-11-20T00:26:23;99974.59;;;7.80;100.00
29839;BME280;18669;53.356;-1.464;2022-11-20T00:28:54;99968.41;;;7.84;100.00
29839;BME280;18669;53.356;-1.464;2022-11-20T00:31:21;99960.78;;;7.73;100.00
29839;BME280;18669;53.356;-1.464;2022-11-20T00:33:48;99963.72;;;7.56;100.00
29839;BME280;18669;53.356;-1.464;2022-11-20T00:36:18;99959.63;;;7.88;100.00
29839;BME280;18669;53.356;-1.464;2022-11-20T00:38:45;99954.66;;;7.74;100.00
29839;BME280;18669;53.356;-1.464;2022-11-20T00:41:13;99942.22;;;7.84;100.00
29839;BME280;18669;53.356;-1.464;2022-11-20T00:43:40;99937.25;;;7.72;100.00
29839;BME280;18669;53.356;-1.464;2022-11-20T00:46:07;99931.03;;;7.78;100.00
29839;BME280;18669;53.356;-1.464;2022-11-20T00:48:33;99931.47;;;7.56;100.00
29839;BME280;18669;53.356;-1.464;2022-11-20T00:51:00;99934.72;;;7.67;100.00
29839;BME280;18669;53.356;-1.464;2022-11-20T00:53:26;99933.81;;;7.68;100.00
29839;BME280;18669;53.356;-1.464;2022-11-20T00:56:00;99915.28;;;7.79;100.00
29839;BME280;18669;53.356;-1.464;2022-11-20T00:58:34;99930.06;;;7.82;100.00
29839;BME280;18669;53.356;-1.464;2022-11-20T01:03:38;99911.69;;;7.83;100.00
29839;BME280;18669;53.356;-1.464;2022-11-20T01:06:09;99913.47;;;7.83;100.00
29839;BME280;18669;53.356;-1.464;2022-11-20T01:08:45;99900.38;;;7.81;100.00
29839;BME280;18669;53.356;-1.464;2022-11-20T01:11:13;99900.22;;;7.90;100.00
29839;BME280;18669;53.356;-1.464;2022-11-20T01:13:40;99892.81;;;7.69;100.00
29839;BME280;18669;53.356;-1.464;2022-11-20T01:18:41;99881.44;;;7.70;100.00
29839;BME280;18669;53.356;-1.464;2022-11-20T01:21:11;99878.00;;;7.68;100.00
29839;BME280;18669;53.356;-1.464;2022-11-20T01:23:39;99884.00;;;7.73;100.00
29839;BME280;18669;53.356;-1.464;2022-11-20T01:26:11;99870.75;;;7.81;100.00
29839;BME280;18669;53.356;-1.464;2022-11-20T01:28:39;99879.56;;;7.76;100.00
29839;BME280;18669;53.356;-1.464;2022-11-20T01:33:49;99863.84;;;7.76;100.00
29839;BME280;18669;53.356;-1.464;2022-11-20T01:36:17;99858.59;;;7.76;100.00
29839;BME280;18669;53.356;-1.464;2022-11-20T01:38:44;99857.91;;;7.68;100.00
29839;BME280;18669;53.356;-1.464;2022-11-20T01:41:12;99849.91;;;7.76;100.00
29839;BME280;18669;53.356;-1.464;2022-11-20T01:43:58;99845.63;;;7.72;100.00
29839;BME280;18669;53.356;-1.464;2022-11-20T01:46:25;99825.75;;;7.61;100.00
29839;BME280;18669;53.356;-1.464;2022-11-20T01:49:02;99837.59;;;7.80;100.00
29839;BME280;18669;53.356;-1.464;2022-11-20T01:54:06;99830.66;;;7.77;100.00
29839;BME280;18669;53.356;-1.464;2022-11-20T01:56:38;99824.63;;;7.75;100.00
29839;BME280;18669;53.356;-1.464;2022-11-20T01:59:07;99819.41;;;7.73;100.00
29839;BME280;18669;53.356;-1.464;2022-11-20T02:01:38;99815.47;;;7.54;100.00
29839;BME280;18669;53.356;-1.464;2022-11-20T02:04:10;99815.47;;;7.54;100.00
29839;BME280;18669;53.356;-1.464;2022-11-20T02:06:49;99807.25;;;7.69;100.00
29839;BME280;18669;53.356;-1.464;2022-11-20T02:09:17;99802.47;;;7.49;100.00
29839;BME280;18669;53.356;-1.464;2022-11-20T02:11:43;99813.81;;;7.50;100.00
29839;BME280;18669;53.356;-1.464;2022-11-20T02:14:10;99808.53;;;7.51;100.00
29839;BME280;18669;53.356;-1.464;2022-11-20T02:16:39;99813.75;;;7.51;100.00
29839;BME280;18669;53.356;-1.464;2022-11-20T02:19:13;99812.75;;;7.58;100.00
29839;BME280;18669;53.356;-1.464;2022-11-20T02:22:07;99810.06;;;7.60;100.00
29839;BME280;18669;53.356;-1.464;2022-11-20T02:24:36;99798.34;;;7.37;100.00
29839;BME280;18669;53.356;-1.464;2022-11-20T02:27:06;99797.22;;;7.49;100.00
29839;BME280;18669;53.356;-1.464;2022-11-20T02:32:21;99775.31;;;7.55;100.00
29839;BME280;18669;53.356;-1.464;2022-11-20T02:34:48;99762.44;;;7.44;100.00
29839;BME280;18669;53.356;-1.464;2022-11-20T02:37:14;99761.59;;;7.43;100.00
29839;BME280;18669;53.356;-1.464;2022-11-20T02:39:41;99755.59;;;7.38;100.00
29839;BME280;18669;53.356;-1.464;2022-11-20T02:42:08;99761.75;;;7.36;100.00
29839;BME280;18669;53.356;-1.464;2022-11-20T02:44:35;99766.94;;;7.37;100.00
29839;BME280;18669;53.356;-1.464;2022-11-20T02:47:01;99749.47;;;7.39;100.00
29839;BME280;18669;53.356;-1.464;2022-11-20T02:49:27;99740.66;;;7.43;100.00
29839;BME280;18669;53.356;-1.464;2022-11-20T02:51:53;99739.56;;;7.52;100.00
29839;BME280;18669;53.356;-1.464;2022-11-20T02:54:19;99732.75;;;7.45;100.00
29839;BME280;18669;53.356;-1.464;2022-11-20T02:56:45;99725.72;;;7.49;100.00
29839;BME280;18669;53.356;-1.464;2022-11-20T02:59:12;99722.25;;;7.46;100.00
29839;BME280;18669;53.356;-1.464;2022-11-20T03:01:38;99711.75;;;7.48;100.00
29839;BME280;18669;53.356;-1.464;2022-11-20T03:04:04;99717.41;;;7.69;100.00
29839;BME280;18669;53.356;-1.464;2022-11-20T03:06:31;99711.59;;;7.56;100.00
29839;BME280;18669;53.356;-1.464;2022-11-20T03:08:59;99705.66;;;7.47;100.00
29839;BME280;18669;53.356;-1.464;2022-11-20T03:11:25;99700.75;;;7.71;100.00
29839;BME280;18669;53.356;-1.464;2022-11-20T03:13:51;99698.59;;;7.51;100.00
29839;BME280;18669;53.356;-1.464;2022-11-20T03:16:21;99692.31;;;7.58;100.00
29839;BME280;18669;53.356;-1.464;2022-11-20T03:18:48;99697.56;;;7.58;100.00
29839;BME280;18669;53.356;-1.464;2022-11-20T03:21:15;99687.13;;;7.57;100.00
29839;BME280;18669;53.356;-1.464;2022-11-20T03:23:42;99679.50;;;7.46;100.00
29839;BME280;18669;53.356;-1.464;2022-11-20T03:26:16;99678.41;;;7.56;100.00
29839;BME280;18669;53.356;-1.464;2022-11-20T03:28:52;99667.38;;;7.42;100.00
29839;BME280;18669;53.356;-1.464;2022-11-20T03:31:26;99670.13;;;7.37;100.00
29839;BME280;18669;53.356;-1.464;2022-11-20T03:33:53;99665.94;;;7.30;100.00
29839;BME280;18669;53.356;-1.464;2022-11-20T03:36:19;99665.50;;;7.49;100.00
29839;BME280;18669;53.356;-1.464;2022-11-20T03:38:46;99658.19;;;7.25;100.00
29839;BME280;18669;53.356;-1.464;2022-11-20T03:41:15;99636.38;;;7.25;100.00
29839;BME280;18669;53.356;-1.464;2022-11-20T03:43:41;99642.63;;;7.19;100.00
29839;BME280;18669;53.356;-1.464;2022-11-20T03:46:08;99635.75;;;7.15;100.00
29839;BME280;18669;53.356;-1.464;2022-11-20T03:48:34;99624.31;;;7.19;100.00
29839;BME280;18669;53.356;-1.464;2022-11-20T03:51:10;99624.81;;;7.35;100.00
29839;BME280;18669;53.356;-1.464;2022-11-20T03:53:38;99619.00;;;7.24;100.00
29839;BME280;18669;53.356;-1.464;2022-11-20T03:56:05;99596.41;;;7.20;100.00
29839;BME280;18669;53.356;-1.464;2022-11-20T03:58:32;99588.38;;;7.27;100.00
29839;BME280;18669;53.356;-1.464;2022-11-20T04:01:04;99590.13;;;7.27;100.00
29839;BME280;18669;53.356;-1.464;2022-11-20T04:03:31;99588.63;;;7.16;100.00
29839;BME280;18669;53.356;-1.464;2022-11-20T04:06:07;99592.56;;;7.35;100.00
29839;BME280;18669;53.356;-1.464;2022-11-20T04:08:33;99581.69;;;7.15;100.00
29839;BME280;18669;53.356;-1.464;2022-11-20T04:11:14;99584.72;;;7.35;100.00
29839;BME280;18669;53.356;-1.464;2022-11-20T04:13:45;99586.09;;;7.13;100.00
29839;BME280;18669;53.356;-1.464;2022-11-20T04:16:11;99580.88;;;7.13;100.00
29839;BME280;18669;53.356;-1.464;2022-11-20T04:18:38;99568.50;;;7.20;100.00
29839;BME280;18669;53.356;-1.464;2022-11-20T04:21:05;99577.16;;;7.22;100.00
29839;BME280;18669;53.356;-1.464;2022-11-20T04:23:32;99576.19;;;7.26;100.00
29839;BME280;18669;53.356;-1.464;2022-11-20T04:26:04;99567.72;;;7.16;100.00
29839;BME280;18669;53.356;-1.464;2022-11-20T04:28:30;99565.94;;;7.17;100.00
29839;BME280;18669;53.356;-1.464;2022-11-20T04:33:35;99556.50;;;7.10;100.00
29839;BME280;18669;53.356;-1.464;2022-11-20T04:36:05;99563.31;;;7.19;100.00
29839;BME280;18669;53.356;-1.464;2022-11-20T04:38:32;99555.59;;;7.12;100.00
29839;BME280;18669;53.356;-1.464;2022-11-20T04:41:04;99554.38;;;7.27;100.00
29839;BME280;18669;53.356;-1.464;2022-11-20T04:43:31;99555.66;;;7.09;100.00
29839;BME280;18669;53.356;-1.464;2022-11-20T04:45:59;99557.38;;;7.10;100.00
29839;BME280;18669;53.356;-1.464;2022-11-20T04:48:27;99557.28;;;7.15;100.00
29839;BME280;18669;53.356;-1.464;2022-11-20T04:50:54;99547.69;;;7.15;100.00
29839;BME280;18669;53.356;-1.464;2022-11-20T04:53:21;99554.78;;;7.10;100.00
29839;BME280;18669;53.356;-1.464;2022-11-20T04:55:48;99553.00;;;7.11;100.00
29839;BME280;18669;53.356;-1.464;2022-11-20T04:58:16;99550.19;;;7.20;100.00
29839;BME280;18669;53.356;-1.464;2022-11-20T05:00:42;99546.81;;;7.15;100.00
29839;BME280;18669;53.356;-1.464;2022-11-20T05:03:09;99551.16;;;7.16;100.00
29839;BME280;18669;53.356;-1.464;2022-11-20T05:05:35;99549.34;;;7.18;100.00
29839;BME280;18669;53.356;-1.464;2022-11-20T05:08:02;99552.88;;;7.17;100.00
29839;BME280;18669;53.356;-1.464;2022-11-20T05:10:28;99553.66;;;7.21;100.00
29839;BME280;18669;53.356;-1.464;2022-11-20T05:12:54;99563.59;;;7.42;100.00
29839;BME280;18669;53.356;-1.464;2022-11-20T05:15:20;99558.03;;;7.20;100.00
29839;BME280;18669;53.356;-1.464;2022-11-20T05:17:47;99551.06;;;7.21;100.00
29839;BME280;18669;53.356;-1.464;2022-11-20T05:20:14;99562.34;;;7.23;100.00
29839;BME280;18669;53.356;-1.464;2022-11-20T05:22:40;99564.41;;;7.44;100.00
29839;BME280;18669;53.356;-1.464;2022-11-20T05:25:06;99557.06;;;7.24;100.00
29839;BME280;18669;53.356;-1.464;2022-11-20T05:27:32;99557.94;;;7.23;100.00
29839;BME280;18669;53.356;-1.464;2022-11-20T05:29:58;99551.06;;;7.19;100.00
29839;BME280;18669;53.356;-1.464;2022-11-20T05:32:25;99556.28;;;7.21;100.00
29839;BME280;18669;53.356;-1.464;2022-11-20T05:34:51;99566.34;;;7.38;100.00
29839;BME280;18669;53.356;-1.464;2022-11-20T05:37:18;99560.56;;;7.23;100.00
29839;BME280;18669;53.356;-1.464;2022-11-20T05:39:44;99545.66;;;7.27;100.00
29839;BME280;18669;53.356;-1.464;2022-11-20T05:42:10;99554.31;;;7.29;100.00
29839;BME280;18669;53.356;-1.464;2022-11-20T05:44:54;99550.84;;;7.28;100.00
29839;BME280;18669;53.356;-1.464;2022-11-20T05:47:20;99536.97;;;7.25;100.00
29839;BME280;18669;53.356;-1.464;2022-11-20T05:49:47;99526.44;;;7.28;100.00
29839;BME280;18669;53.356;-1.464;2022-11-20T05:52:13;99522.06;;;7.28;100.00
29839;BME280;18669;53.356;-1.464;2022-11-20T05:54:39;99516.84;;;7.28;100.00
29839;BME280;18669;53.356;-1.464;2022-11-20T05:57:05;99517.00;;;7.22;100.00
29839;BME280;18669;53.356;-1.464;2022-11-20T05:59:36;99503.53;;;7.38;100.00
29839;BME280;18669;53.356;-1.464;2022-11-20T06:02:02;99512.44;;;7.30;100.00
29839;BME280;18669;53.356;-1.464;2022-11-20T06:04:28;99507.47;;;7.54;100.00
29839;BME280;18669;53.356;-1.464;2022-11-20T06:06:54;99506.97;;;7.40;100.00
29839;BME280;18669;53.356;-1.464;2022-11-20T06:09:20;99499.19;;;7.37;100.00
29839;BME280;18669;53.356;-1.464;2022-11-20T06:11:47;99499.16;;;7.38;100.00
29839;BME280;18669;53.356;-1.464;2022-11-20T06:14:13;99499.16;;;7.38;100.00
29839;BME280;18669;53.356;-1.464;2022-11-20T06:16:39;99498.78;;;7.52;100.00
29839;BME280;18669;53.356;-1.464;2022-11-20T06:19:05;99496.50;;;7.40;100.00
29839;BME280;18669;53.356;-1.464;2022-11-20T06:21:31;99493.03;;;7.39;100.00
29839;BME280;18669;53.356;-1.464;2022-11-20T06:23:57;99480.16;;;7.31;100.00
29839;BME280;18669;53.356;-1.464;2022-11-20T06:26:25;99481.72;;;7.39;100.00
29839;BME280;18669;53.356;-1.464;2022-11-20T06:28:53;99480.00;;;7.36;100.00
29839;BME280;18669;53.356;-1.464;2022-11-20T06:31:22;99481.72;;;7.39;100.00
29839;BME280;18669;53.356;-1.464;2022-11-20T06:33:50;99484.44;;;7.34;100.00
29839;BME280;18669;53.356;-1.464;2022-11-20T06:36:17;99478.28;;;7.37;100.00
29839;BME280;18669;53.356;-1.464;2022-11-20T06:38:44;99478.44;;;7.30;100.00
29839;BME280;18669;53.356;-1.464;2022-11-20T06:41:11;99482.41;;;7.45;100.00
29839;BME280;18669;53.356;-1.464;2022-11-20T06:43:38;99482.00;;;7.26;100.00
29839;BME280;18669;53.356;-1.464;2022-11-20T06:46:05;99475.84;;;7.29;100.00
29839;BME280;18669;53.356;-1.464;2022-11-20T06:48:31;99487.16;;;7.29;100.00
29839;BME280;18669;53.356;-1.464;2022-11-20T06:50:57;99492.78;;;7.49;100.00
29839;BME280;18669;53.356;-1.464;2022-11-20T06:53:24;99479.16;;;7.36;100.00
29839;BME280;18669;53.356;-1.464;2022-11-20T06:55:51;99489.59;;;7.37;100.00
29839;BME280;18669;53.356;-1.464;2022-11-20T06:58:17;99480.75;;;7.41;100.00
29839;BME280;18669;53.356;-1.464;2022-11-20T07:00:44;99481.88;;;7.32;100.00
29839;BME280;18669;53.356;-1.464;2022-11-20T07:03:11;99479.94;;;7.39;100.00
29839;BME280;18669;53.356;-1.464;2022-11-20T07:05:37;99479.41;;;7.25;100.00
29839;BME280;18669;53.356;-1.464;2022-11-20T07:08:07;99488.44;;;7.13;100.00
29839;BME280;18669;53.356;-1.464;2022-11-20T07:10:34;99483.34;;;7.08;100.00
29839;BME280;18669;53.356;-1.464;2022-11-20T07:13:00;99493.09;;;7.01;100.00
29839;BME280;18669;53.356;-1.464;2022-11-20T07:15:26;99504.13;;;7.13;100.00
29839;BME280;18669;53.356;-1.464;2022-11-20T07:17:52;99502.88;;;6.93;100.00
29839;BME280;18669;53.356;-1.464;2022-11-20T07:20:18;99503.50;;;7.03;100.00
29839;BME280;18669;53.356;-1.464;2022-11-20T07:22:44;99497.84;;;6.84;100.00
29839;BME280;18669;53.356;-1.464;2022-11-20T07:25:10;99504.53;;;6.96;100.00
29839;BME280;18669;53.356;-1.464;2022-11-20T07:27:37;99498.81;;;6.80;100.00
29839;BME280;18669;53.356;-1.464;2022-11-20T07:30:03;99507.00;;;7.02;100.00
29839;BME280;18669;53.356;-1.464;2022-11-20T07:32:30;99509.81;;;6.94;100.00
29839;BME280;18669;53.356;-1.464;2022-11-20T07:34:56;99508.84;;;6.98;100.00
29839;BME280;18669;53.356;-1.464;2022-11-20T07:37:22;99512.19;;;7.05;100.00
29839;BME280;18669;53.356;-1.464;2022-11-20T07:39:48;99506.53;;;7.22;100.00
29839;BME280;18669;53.356;-1.464;2022-11-20T07:42:14;99496.41;;;7.08;100.00
29839;BME280;18669;53.356;-1.464;2022-11-20T07:44:40;99512.06;;;7.10;100.00
29839;BME280;18669;53.356;-1.464;2022-11-20T07:47:06;99505.09;;;7.09;100.00
29839;BME280;18669;53.356;-1.464;2022-11-20T07:49:32;99515.56;;;7.09;100.00
29839;BME280;18669;53.356;-1.464;2022-11-20T07:52:00;99513.94;;;7.05;100.00
29839;BME280;18669;53.356;-1.464;2022-11-20T07:54:26;99516.63;;;7.01;100.00
29839;BME280;18669;53.356;-1.464;2022-11-20T07:56:52;99522.63;;;7.05;100.00
29839;BME280;18669;53.356;-1.464;2022-11-20T07:59:19;99538.22;;;7.10;100.00
29839;BME280;18669;53.356;-1.464;2022-11-20T08:01:45;99538.97;;;7.15;100.00
29839;BME280;18669;53.356;-1.464;2022-11-20T08:04:11;99545.03;;;7.17;100.00
29839;BME280;18669;53.356;-1.464;2022-11-20T08:06:38;99545.06;;;7.15;100.00
29839;BME280;18669;53.356;-1.464;2022-11-20T08:09:04;99560.56;;;7.23;100.00
29839;BME280;18669;53.356;-1.464;2022-11-20T08:11:31;99555.25;;;7.26;100.00
29839;BME280;18669;53.356;-1.464;2022-11-20T08:14:16;99539.66;;;7.23;100.00
29839;BME280;18669;53.356;-1.464;2022-11-20T08:16:44;99548.13;;;7.33;100.00
29839;BME280;18669;53.356;-1.464;2022-11-20T08:19:12;99548.19;;;7.30;100.00
29839;BME280;18669;53.356;-1.464;2022-11-20T08:21:39;99550.88;;;7.27;100.00
29839;BME280;18669;53.356;-1.464;2022-11-20T08:24:07;99555.19;;;7.29;100.00
29839;BME280;18669;53.356;-1.464;2022-11-20T08:26:35;99555.88;;;7.38;100.00
29839;BME280;18669;53.356;-1.464;2022-11-20T08:29:01;99545.44;;;7.36;100.00
29839;BME280;18669;53.356;-1.464;2022-11-20T08:31:28;99549.47;;;7.50;100.00
29839;BME280;18669;53.356;-1.464;2022-11-20T08:33:54;99551.56;;;7.70;100.00
29839;BME280;18669;53.356;-1.464;2022-11-20T08:36:22;99557.81;;;7.64;100.00
29839;BME280;18669;53.356;-1.464;2022-11-20T08:38:53;99555.94;;;7.69;100.00
29839;BME280;18669;53.356;-1.464;2022-11-20T08:41:20;99552.53;;;7.66;100.00
29839;BME280;18669;53.356;-1.464;2022-11-20T08:43:55;99563.69;;;7.74;100.00
29839;BME280;18669;53.356;-1.464;2022-11-20T08:46:23;99566.16;;;7.79;100.00
29839;BME280;18669;53.356;-1.464;2022-11-20T08:48:50;99565.22;;;7.81;100.00
29839;BME280;18669;53.356;-1.464;2022-11-20T08:51:18;99567.53;;;7.94;100.00
29839;BME280;18669;53.356;-1.464;2022-11-20T08:53:46;99576.03;;;8.02;100.00
29839;BME280;18669;53.356;-1.464;2022-11-20T08:56:14;99582.00;;;8.07;100.00
29839;BME280;18669;53.356;-1.464;2022-11-20T08:58:41;99586.38;;;8.06;100.00
29839;BME280;18669;53.356;-1.464;2022-11-20T09:01:07;99589.69;;;8.13;100.00
29839;BME280;18669;53.356;-1.464;2022-11-20T09:03:34;99582.56;;;8.18;100.00
29839;BME280;18669;53.356;-1.464;2022-11-20T09:06:05;99574.28;;;8.34;100.00
29839;BME280;18669;53.356;-1.464;2022-11-20T09:08:32;99584.78;;;8.32;100.00
29839;BME280;18669;53.356;-1.464;2022-11-20T09:10:59;99569.84;;;8.36;100.00
29839;BME280;18669;53.356;-1.464;2022-11-20T09:13:27;99567.81;;;8.46;100.00
29839;BME280;18669;53.356;-1.464;2022-11-20T09:15:56;99580.03;;;8.47;100.00
29839;BME280;18669;53.356;-1.464;2022-11-20T09:18:23;99593.09;;;8.48;100.00
29839;BME280;18669;53.356;-1.464;2022-11-20T09:20:50;99586.97;;;8.49;100.00
29839;BME280;18669;53.356;-1.464;2022-11-20T09:23:16;99584.94;;;8.59;100.00
29839;BME280;18669;53.356;-1.464;2022-11-20T09:25:43;99591.91;;;8.60;100.00
29839;BME280;18669;53.356;-1.464;2022-11-20T09:28:09;99585.78;;;8.60;100.00
29839;BME280;18669;53.356;-1.464;2022-11-20T09:30:36;99585.72;;;8.63;100.00
29839;BME280;18669;53.356;-1.464;2022-11-20T09:33:04;99581.03;;;8.73;100.00
29839;BME280;18669;53.356;-1.464;2022-11-20T09:35:30;99582.94;;;8.68;100.00
29839;BME280;18669;53.356;-1.464;2022-11-20T09:37:58;99588.06;;;8.72;100.00
29839;BME280;18669;53.356;-1.464;2022-11-20T09:40:26;99587.88;;;8.78;100.00
29839;BME280;18669;53.356;-1.464;2022-11-20T09:51:13;99587.59;;;9.16;100.00
29839;BME280;18669;53.356;-1.464;2022-11-20T09:56:40;99575.63;;;9.36;100.00
29839;BME280;18669;53.356;-1.464;2022-11-20T09:59:14;99574.38;;;9.46;100.00
29839;BME280;18669;53.356;-1.464;2022-11-20T10:01:43;99579.50;;;9.76;100.00
29839;BME280;18669;53.356;-1.464;2022-11-20T10:04:14;99576.34;;;9.66;100.00
29839;BME280;18669;53.356;-1.464;2022-11-20T10:07:00;99564.91;;;9.69;100.00
29839;BME280;18669;53.356;-1.464;2022-11-20T10:09:39;99567.34;;;9.74;100.00
29839;BME280;18669;53.356;-1.464;2022-11-20T10:25:16;99553.72;;;10.13;100.00
29839;BME280;18669;53.356;-1.464;2022-11-20T10:28:06;99553.81;;;9.86;100.00
29839;BME280;18669;53.356;-1.464;2022-11-20T10:30:45;99569.25;;;9.70;100.00
29839;BME280;18669;53.356;-1.464;2022-11-20T10:33:22;99565.41;;;9.53;100.00
29839;BME280;18669;53.356;-1.464;2022-11-20T10:38:39;99565.06;;;9.37;100.00
29839;BME280;18669;53.356;-1.464;2022-11-20T10:41:17;99558.09;;;9.36;100.00
29839;BME280;18669;53.356;-1.464;2022-11-20T10:46:25;99563.00;;;9.19;100.00
29839;BME280;18669;53.356;-1.464;2022-11-20T10:48:51;99555.38;;;9.13;100.00
29839;BME280;18669;53.356;-1.464;2022-11-20T10:54:39;99558.44;;;9.25;100.00
29839;BME280;18669;53.356;-1.464;2022-11-20T10:57:07;99540.22;;;9.21;100.00
29839;BME280;18669;53.356;-1.464;2022-11-20T11:02:21;99546.78;;;9.34;100.00
29839;BME280;18669;53.356;-1.464;2022-11-20T11:04:52;99546.03;;;9.31;100.00
29839;BME280;18669;53.356;-1.464;2022-11-20T11:07:30;99546.75;;;9.36;100.00
29839;BME280;18669;53.356;-1.464;2022-11-20T11:10:00;99539.06;;;9.30;100.00
29839;BME280;18669;53.356;-1.464;2022-11-20T11:12:27;99538.94;;;9.60;100.00
29839;BME280;18669;53.356;-1.464;2022-11-20T11:14:56;99541.72;;;9.55;100.00
29839;BME280;18669;53.356;-1.464;2022-11-20T11:20:03;99543.13;;;9.65;100.00
29839;BME280;18669;53.356;-1.464;2022-11-20T11:22:32;99545.22;;;9.55;100.00
29839;BME280;18669;53.356;-1.464;2022-11-20T11:25:00;99543.75;;;9.47;100.00
29839;BME280;18669;53.356;-1.464;2022-11-20T11:27:27;99529.72;;;9.48;100.00
29839;BME280;18669;53.356;-1.464;2022-11-20T11:30:11;99523.63;;;9.73;100.00
29839;BME280;18669;53.356;-1.464;2022-11-20T11:32:38;99525.09;;;9.54;100.00
29839;BME280;18669;53.356;-1.464;2022-11-20T11:35:06;99521.19;;;9.66;100.00
29839;BME280;18669;53.356;-1.464;2022-11-20T11:37:45;99507.63;;;10.28;100.00
29839;BME280;18669;53.356;-1.464;2022-11-20T11:40:17;99507.94;;;11.54;100.00
29839;BME280;18669;53.356;-1.464;2022-11-20T11:42:48;99511.47;;;12.53;100.00
29839;BME280;18669;53.356;-1.464;2022-11-20T11:45:16;99498.28;;;13.26;100.00
29839;BME280;18669;53.356;-1.464;2022-11-20T12:01:32;99497.94;;;17.18;63.25
29839;BME280;18669;53.356;-1.464;2022-11-20T12:06:31;99509.47;;;17.32;62.11
29839;BME280;18669;53.356;-1.464;2022-11-20T12:09:05;99501.25;;;18.01;58.77
29839;BME280;18669;53.356;-1.464;2022-11-20T12:16:53;99517.31;;;15.62;65.20
29839;BME280;18669;53.356;-1.464;2022-11-20T12:19:21;99512.31;;;14.31;75.67
29839;BME280;18669;53.356;-1.464;2022-11-20T12:35:57;99513.72;;;12.03;100.00
29839;BME280;18669;53.356;-1.464;2022-11-20T12:44:52;99516.13;;;11.25;100.00
29839;BME280;18669;53.356;-1.464;2022-11-20T12:53:10;99505.38;;;11.09;100.00
29839;BME280;18669;53.356;-1.464;2022-11-20T12:56:00;99510.75;;;11.06;100.00
29839;BME280;18669;53.356;-1.464;2022-11-20T12:58:39;99511.56;;;11.08;100.00
29839;BME280;18669;53.356;-1.464;2022-11-20T13:06:47;99509.53;;;11.15;100.00
29839;BME280;18669;53.356;-1.464;2022-11-20T13:09:16;99509.59;;;11.13;100.00
29839;BME280;18669;53.356;-1.464;2022-11-20T13:18:00;99521.50;;;11.01;100.00
29839;BME280;18669;53.356;-1.464;2022-11-20T13:20:28;99507.28;;;10.83;100.00
29839;BME280;18669;53.356;-1.464;2022-11-20T13:22:56;99515.53;;;10.74;100.00
29839;BME280;18669;53.356;-1.464;2022-11-20T13:25:27;99521.16;;;10.65;100.00
29839;BME280;18669;53.356;-1.464;2022-11-20T13:27:55;99514.50;;;10.56;100.00
29839;BME280;18669;53.356;-1.464;2022-11-20T13:30:23;99522.19;;;10.60;100.00
29839;BME280;18669;53.356;-1.464;2022-11-20T13:33:31;99499.72;;;10.76;100.00
29839;BME280;18669;53.356;-1.464;2022-11-20T13:36:03;99504.75;;;10.58;100.00
29839;BME280;18669;53.356;-1.464;2022-11-20T13:38:44;99501.22;;;10.81;100.00
29839;BME280;18669;53.356;-1.464;2022-11-20T13:44:14;99505.69;;;10.79;100.00
29839;BME280;18669;53.356;-1.464;2022-11-20T13:46:47;99517.72;;;10.63;100.00
29839;BME280;18669;53.356;-1.464;2022-11-20T13:49:33;99524.91;;;10.81;100.00
29839;BME280;18669;53.356;-1.464;2022-11-20T14:01:10;99537.66;;;10.46;100.00
29839;BME280;18669;53.356;-1.464;2022-11-20T14:03:38;99539.75;;;10.60;100.00
29839;BME280;18669;53.356;-1.464;2022-11-20T14:06:11;99527.72;;;10.54;100.00
29839;BME280;18669;53.356;-1.464;2022-11-20T14:08:46;99535.41;;;10.59;100.00
29839;BME280;18669;53.356;-1.464;2022-11-20T14:11:29;99533.59;;;10.61;100.00
29839;BME280;18669;53.356;-1.464;2022-11-20T14:16:36;99523.63;;;10.45;100.00
29839;BME280;18669;53.356;-1.464;2022-11-20T14:21:52;99513.72;;;10.28;100.00
29839;BME280;18669;53.356;-1.464;2022-11-20T14:24:23;99522.19;;;10.37;100.00
29839;BME280;18669;53.356;-1.464;2022-11-20T14:26:51;99520.78;;;10.28;100.00
29839;BME280;18669;53.356;-1.464;2022-11-20T14:29:20;99515.69;;;10.23;100.00
29839;BME280;18669;53.356;-1.464;2022-11-20T14:31:52;99512.13;;;10.24;100.00
29839;BME280;18669;53.356;-1.464;2022-11-20T14:34:22;99508.88;;;10.18;100.00
29839;BME280;18669;53.356;-1.464;2022-11-20T14:36:53;99511.59;;;10.14;100.00
29839;BME280;18669;53.356;-1.464;2022-11-20T14:39:25;99507.56;;;10.06;100.00
29839;BME280;18669;53.356;-1.464;2022-11-20T14:41:54;99507.56;;;10.06;100.00
29839;BME280;18669;53.356;-1.464;2022-11-20T14:44:25;99514.72;;;10.26;100.00
29839;BME280;18669;53.356;-1.464;2022-11-20T14:46:52;99506.66;;;10.07;100.00
29839;BME280;18669;53.356;-1.464;2022-11-20T14:49:19;99518.88;;;10.08;100.00
29839;BME280;18669;53.356;-1.464;2022-11-20T14:51:45;99512.00;;;10.04;100.00
29839;BME280;18669;53.356;-1.464;2022-11-20T14:54:20;99508.66;;;10.24;100.00
29839;BME280;18669;53.356;-1.464;2022-11-20T14:56:59;99513.97;;;10.22;100.00
29839;BME280;18669;53.356;-1.464;2022-11-20T14:59:27;99523.91;;;10.14;100.00
29839;BME280;18669;53.356;-1.464;2022-11-20T15:04:29;99514.53;;;10.07;100.00
29839;BME280;18669;53.356;-1.464;2022-11-20T15:06:55;99509.50;;;10.24;100.00
29839;BME280;18669;53.356;-1.464;2022-11-20T15:09:22;99510.38;;;10.25;100.00
29839;BME280;18669;53.356;-1.464;2022-11-20T15:11:57;99502.56;;;10.23;100.00